sensor_id;sensor_type;location;lat;lon;timestamp;temperature;humidity
75217;HTU21D;63800;51.972;5.682;2024-01-15T00:00:14;-15.25;118.99
75217;HTU21D;63800;51.972;5.682;2024-01-15T00:02:40;-15.22;118.99
75217;HTU21D;63800;51.972;5.682;2024-01-15T00:05:05;-15.16;118.99
75217;HTU21D;63800;51.972;5.682;2024-01-15T00:07:31;-15.18;118.99
75217;HTU21D;63800;51.972;5.682;2024-01-15T00:09:56;-15.11;118.99
75217;HTU21D;63800;51.972;5.682;2024-01-15T00:12:22;-15.15;118.99
75217;HTU21D;63800;51.972;5.682;2024-01-15T00:14:47;-15.15;118.99
75217;HTU21D;63800;51.972;5.682;2024-01-15T00:17:13;-15.19;118.99
75217;HTU21D;63800;51.972;5.682;2024-01-15T00:19:39;-15.15;118.99
75217;HTU21D;63800;51.972;5.682;2024-01-15T00:22:04;-15.22;118.99
75217;HTU21D;63800;51.972;5.682;2024-01-15T00:24:29;-15.22;118.99
75217;HTU21D;63800;51.972;5.682;2024-01-15T00:26:55;-15.19;118.99
75217;HTU21D;63800;51.972;5.682;2024-01-15T00:29:21;-15.21;118.99
75217;HTU21D;63800;51.972;5.682;2024-01-15T00:31:47;-15.22;118.99
75217;HTU21D;63800;51.972;5.682;2024-01-15T00:34:12;-15.28;118.99
75217;HTU21D;63800;51.972;5.682;2024-01-15T00:36:37;-15.20;118.99
75217;HTU21D;63800;51.972;5.682;2024-01-15T00:39:03;-15.22;118.99
75217;HTU21D;63800;51.972;5.682;2024-01-15T00:41:30;-15.26;118.99
75217;HTU21D;63800;51.972;5.682;2024-01-15T00:43:56;-15.26;118.99
75217;HTU21D;63800;51.972;5.682;2024-01-15T00:46:22;-15.26;118.99
75217;HTU21D;63800;51.972;5.682;2024-01-15T00:48:47;-15.22;118.99
75217;HTU21D;63800;51.972;5.682;2024-01-15T00:51:13;-15.26;118.99
75217;HTU21D;63800;51.972;5.682;2024-01-15T00:53:38;-15.25;118.99
75217;HTU21D;63800;51.972;5.682;2024-01-15T00:56:04;-15.29;118.99
75217;HTU21D;63800;51.972;5.682;2024-01-15T00:58:29;-15.31;118.99
75217;HTU21D;63800;51.972;5.682;2024-01-15T01:00:54;-15.28;118.99
75217;HTU21D;63800;51.972;5.682;2024-01-15T01:03:20;-15.22;118.99
75217;HTU21D;63800;51.972;5.682;2024-01-15T01:05:48;-15.26;118.99
75217;HTU21D;63800;51.972;5.682;2024-01-15T01:08:14;-15.32;118.99
75217;HTU21D;63800;51.972;5.682;2024-01-15T01:10:40;-15.26;118.99
75217;HTU21D;63800;51.972;5.682;2024-01-15T01:13:08;-15.23;118.99
75217;HTU21D;63800;51.972;5.682;2024-01-15T01:15:33;-15.29;118.99
75217;HTU21D;63800;51.972;5.682;2024-01-15T01:17:59;-15.26;118.99
75217;HTU21D;63800;51.972;5.682;2024-01-15T01:20:24;-15.26;118.99
75217;HTU21D;63800;51.972;5.682;2024-01-15T01:22:50;-15.29;118.99
75217;HTU21D;63800;51.972;5.682;2024-01-15T01:25:15;-15.23;118.99
75217;HTU21D;63800;51.972;5.682;2024-01-15T01:27:41;-15.10;118.99
75217;HTU21D;63800;51.972;5.682;2024-01-15T01:30:06;-15.09;118.99
75217;HTU21D;63800;51.972;5.682;2024-01-15T01:32:32;-15.04;118.99
75217;HTU21D;63800;51.972;5.682;2024-01-15T01:34:57;-14.99;118.99
75217;HTU21D;63800;51.972;5.682;2024-01-15T01:37:23;-15.01;118.99
75217;HTU21D;63800;51.972;5.682;2024-01-15T01:39:48;-14.92;118.99
75217;HTU21D;63800;51.972;5.682;2024-01-15T01:42:14;-14.84;118.99
75217;HTU21D;63800;51.972;5.682;2024-01-15T01:44:39;-14.79;118.99
75217;HTU21D;63800;51.972;5.682;2024-01-15T01:47:05;-14.77;118.99
75217;HTU21D;63800;51.972;5.682;2024-01-15T01:49:31;-14.74;118.99
75217;HTU21D;63800;51.972;5.682;2024-01-15T01:51:59;-14.64;118.99
75217;HTU21D;63800;51.972;5.682;2024-01-15T01:54:29;-14.61;118.99
75217;HTU21D;63800;51.972;5.682;2024-01-15T01:56:57;-14.60;118.99
75217;HTU21D;63800;51.972;5.682;2024-01-15T01:59:24;-14.63;118.99
75217;HTU21D;63800;51.972;5.682;2024-01-15T02:01:50;-14.62;118.99
75217;HTU21D;63800;51.972;5.682;2024-01-15T02:04:17;-14.57;118.99
75217;HTU21D;63800;51.972;5.682;2024-01-15T02:06:42;-14.61;118.99
75217;HTU21D;63800;51.972;5.682;2024-01-15T02:09:08;-14.61;118.99
75217;HTU21D;63800;51.972;5.682;2024-01-15T02:11:35;-14.66;118.99
75217;HTU21D;63800;51.972;5.682;2024-01-15T02:14:01;-14.66;118.99
75217;HTU21D;63800;51.972;5.682;2024-01-15T02:16:26;-14.60;118.99
75217;HTU21D;63800;51.972;5.682;2024-01-15T02:18:52;-14.54;118.99
75217;HTU21D;63800;51.972;5.682;2024-01-15T02:21:17;-14.49;118.99
75217;HTU21D;63800;51.972;5.682;2024-01-15T02:23:43;-14.47;118.99
75217;HTU21D;63800;51.972;5.682;2024-01-15T02:26:09;-14.46;118.99
75217;HTU21D;63800;51.972;5.682;2024-01-15T02:28:34;-14.41;118.99
75217;HTU21D;63800;51.972;5.682;2024-01-15T02:31:00;-14.45;118.99
75217;HTU21D;63800;51.972;5.682;2024-01-15T02:33:25;-14.51;118.99
75217;HTU21D;63800;51.972;5.682;2024-01-15T02:35:50;-14.45;118.99
75217;HTU21D;63800;51.972;5.682;2024-01-15T02:38:16;-14.43;118.99
75217;HTU21D;63800;51.972;5.682;2024-01-15T02:40:44;-14.41;118.99
75217;HTU21D;63800;51.972;5.682;2024-01-15T02:43:10;-14.45;118.99
75217;HTU21D;63800;51.972;5.682;2024-01-15T02:45:36;-14.45;118.99
75217;HTU21D;63800;51.972;5.682;2024-01-15T02:48:02;-14.45;118.99
75217;HTU21D;63800;51.972;5.682;2024-01-15T02:50:27;-14.39;118.99
75217;HTU21D;63800;51.972;5.682;2024-01-15T02:52:53;-14.39;118.99
75217;HTU21D;63800;51.972;5.682;2024-01-15T02:55:18;-14.34;118.99
75217;HTU21D;63800;51.972;5.682;2024-01-15T02:57:43;-14.35;118.99
75217;HTU21D;63800;51.972;5.682;2024-01-15T03:00:09;-14.33;118.99
75217;HTU21D;63800;51.972;5.682;2024-01-15T03:02:37;-14.39;118.99
75217;HTU21D;63800;51.972;5.682;2024-01-15T03:05:06;-14.40;118.99
75217;HTU21D;63800;51.972;5.682;2024-01-15T03:07:32;-14.35;118.99
75217;HTU21D;63800;51.972;5.682;2024-01-15T03:09:58;-14.32;118.99
75217;HTU21D;63800;51.972;5.682;2024-01-15T03:12:23;-14.33;118.99
75217;HTU21D;63800;51.972;5.682;2024-01-15T03:14:49;-14.46;118.99
75217;HTU21D;63800;51.972;5.682;2024-01-15T03:17:14;-14.49;118.99
75217;HTU21D;63800;51.972;5.682;2024-01-15T03:19:40;-14.51;118.99
75217;HTU21D;63800;51.972;5.682;2024-01-15T03:22:05;-14.64;118.99
75217;HTU21D;63800;51.972;5.682;2024-01-15T03:24:34;-14.67;118.99
75217;HTU21D;63800;51.972;5.682;2024-01-15T03:26:59;-14.57;118.99
75217;HTU21D;63800;51.972;5.682;2024-01-15T03:29:26;-14.58;118.99
75217;HTU21D;63800;51.972;5.682;2024-01-15T03:31:51;-14.59;118.99
75217;HTU21D;63800;51.972;5.682;2024-01-15T03:34:17;-14.55;118.99
75217;HTU21D;63800;51.972;5.682;2024-01-15T03:36:42;-14.55;118.99
75217;HTU21D;63800;51.972;5.682;2024-01-15T03:39:07;-14.63;118.99
75217;HTU21D;63800;51.972;5.682;2024-01-15T03:41:33;-14.69;118.99
75217;HTU21D;63800;51.972;5.682;2024-01-15T03:43:58;-14.65;118.99
75217;HTU21D;63800;51.972;5.682;2024-01-15T03:46:24;-14.60;118.99
75217;HTU21D;63800;51.972;5.682;2024-01-15T03:48:50;-14.63;118.99
75217;HTU21D;63800;51.972;5.682;2024-01-15T03:51:17;-14.57;118.99
75217;HTU21D;63800;51.972;5.682;2024-01-15T03:53:43;-14.49;118.99
75217;HTU21D;63800;51.972;5.682;2024-01-15T03:56:08;-14.52;118.99
75217;HTU21D;63800;51.972;5.682;2024-01-15T03:58:34;-14.55;118.99
75217;HTU21D;63800;51.972;5.682;2024-01-15T04:00:59;-14.62;118.99
75217;HTU21D;63800;51.972;5.682;2024-01-15T04:03:25;-14.69;118.99
75217;HTU21D;63800;51.972;5.682;2024-01-15T04:05:50;-14.80;118.99
75217;HTU21D;63800;51.972;5.682;2024-01-15T04:08:15;-14.77;118.99
75217;HTU21D;63800;51.972;5.682;2024-01-15T04:10:41;-14.78;118.99
75217;HTU21D;63800;51.972;5.682;2024-01-15T04:13:06;-14.73;118.99
75217;HTU21D;63800;51.972;5.682;2024-01-15T04:15:32;-14.69;118.99
75217;HTU21D;63800;51.972;5.682;2024-01-15T04:17:57;-14.61;118.99
75217;HTU21D;63800;51.972;5.682;2024-01-15T04:20:23;-14.65;118.99
75217;HTU21D;63800;51.972;5.682;2024-01-15T04:22:48;-14.69;118.99
75217;HTU21D;63800;51.972;5.682;2024-01-15T04:25:14;-14.78;118.99
75217;HTU21D;63800;51.972;5.682;2024-01-15T04:27:39;-14.82;118.99
75217;HTU21D;63800;51.972;5.682;2024-01-15T04:30:05;-14.72;118.99
75217;HTU21D;63800;51.972;5.682;2024-01-15T04:32:31;-14.66;118.99
75217;HTU21D;63800;51.972;5.682;2024-01-15T04:34:56;-14.60;118.99
75217;HTU21D;63800;51.972;5.682;2024-01-15T04:37:21;-14.50;118.99
75217;HTU21D;63800;51.972;5.682;2024-01-15T04:39:47;-14.54;118.99
75217;HTU21D;63800;51.972;5.682;2024-01-15T04:42:13;-14.77;118.99
75217;HTU21D;63800;51.972;5.682;2024-01-15T04:44:38;-14.73;118.99
75217;HTU21D;63800;51.972;5.682;2024-01-15T04:47:03;-14.74;118.99
75217;HTU21D;63800;51.972;5.682;2024-01-15T04:49:29;-14.60;118.99
75217;HTU21D;63800;51.972;5.682;2024-01-15T04:51:55;-14.52;118.99
75217;HTU21D;63800;51.972;5.682;2024-01-15T04:54:20;-14.52;118.99
75217;HTU21D;63800;51.972;5.682;2024-01-15T04:56:46;-14.59;118.99
75217;HTU21D;63800;51.972;5.682;2024-01-15T04:59:12;-14.80;118.99
75217;HTU21D;63800;51.972;5.682;2024-01-15T05:01:38;-14.82;118.99
75217;HTU21D;63800;51.972;5.682;2024-01-15T05:04:03;-14.82;118.99
75217;HTU21D;63800;51.972;5.682;2024-01-15T05:06:29;-14.81;118.99
75217;HTU21D;63800;51.972;5.682;2024-01-15T05:08:54;-14.82;118.99
75217;HTU21D;63800;51.972;5.682;2024-01-15T05:11:20;-14.87;118.99
75217;HTU21D;63800;51.972;5.682;2024-01-15T05:13:45;-14.91;118.99
75217;HTU21D;63800;51.972;5.682;2024-01-15T05:16:10;-14.96;118.99
75217;HTU21D;63800;51.972;5.682;2024-01-15T05:18:36;-14.94;118.99
75217;HTU21D;63800;51.972;5.682;2024-01-15T05:21:03;-14.84;118.99
75217;HTU21D;63800;51.972;5.682;2024-01-15T05:23:28;-14.95;118.99
75217;HTU21D;63800;51.972;5.682;2024-01-15T05:25:54;-15.01;118.99
75217;HTU21D;63800;51.972;5.682;2024-01-15T05:28:19;-15.15;118.99
75217;HTU21D;63800;51.972;5.682;2024-01-15T05:30:45;-15.23;118.99
75217;HTU21D;63800;51.972;5.682;2024-01-15T05:33:10;-15.28;118.99
75217;HTU21D;63800;51.972;5.682;2024-01-15T05:35:36;-15.29;118.99
75217;HTU21D;63800;51.972;5.682;2024-01-15T05:38:01;-15.24;118.99
75217;HTU21D;63800;51.972;5.682;2024-01-15T05:40:28;-15.31;118.99
75217;HTU21D;63800;51.972;5.682;2024-01-15T05:42:53;-15.41;118.99
75217;HTU21D;63800;51.972;5.682;2024-01-15T05:45:19;-15.40;118.99
75217;HTU21D;63800;51.972;5.682;2024-01-15T05:47:44;-15.46;118.99
75217;HTU21D;63800;51.972;5.682;2024-01-15T05:50:10;-15.43;118.99
75217;HTU21D;63800;51.972;5.682;2024-01-15T05:52:36;-15.37;118.99
75217;HTU21D;63800;51.972;5.682;2024-01-15T05:55:01;-15.48;118.99
75217;HTU21D;63800;51.972;5.682;2024-01-15T05:57:27;-15.46;118.99
75217;HTU21D;63800;51.972;5.682;2024-01-15T05:59:53;-15.40;118.99
75217;HTU21D;63800;51.972;5.682;2024-01-15T06:02:18;-15.41;118.99
75217;HTU21D;63800;51.972;5.682;2024-01-15T06:04:44;-15.55;118.99
75217;HTU21D;63800;51.972;5.682;2024-01-15T06:07:09;-15.53;118.99
75217;HTU21D;63800;51.972;5.682;2024-01-15T06:09:35;-15.53;118.99
75217;HTU21D;63800;51.972;5.682;2024-01-15T06:12:00;-15.54;118.99
75217;HTU21D;63800;51.972;5.682;2024-01-15T06:14:26;-15.53;118.99
75217;HTU21D;63800;51.972;5.682;2024-01-15T06:16:52;-15.47;118.99
75217;HTU21D;63800;51.972;5.682;2024-01-15T06:19:18;-15.43;118.99
75217;HTU21D;63800;51.972;5.682;2024-01-15T06:21:43;-15.49;118.99
75217;HTU21D;63800;51.972;5.682;2024-01-15T06:24:08;-15.51;118.99
75217;HTU21D;63800;51.972;5.682;2024-01-15T06:26:35;-15.56;118.99
75217;HTU21D;63800;51.972;5.682;2024-01-15T06:29:01;-15.59;118.99
75217;HTU21D;63800;51.972;5.682;2024-01-15T06:31:26;-15.61;118.99
75217;HTU21D;63800;51.972;5.682;2024-01-15T06:33:52;-15.52;118.99
75217;HTU21D;63800;51.972;5.682;2024-01-15T06:36:18;-15.53;118.99
75217;HTU21D;63800;51.972;5.682;2024-01-15T06:38:43;-15.61;118.99
75217;HTU21D;63800;51.972;5.682;2024-01-15T06:41:09;-15.61;118.99
75217;HTU21D;63800;51.972;5.682;2024-01-15T06:43:35;-15.63;118.99
75217;HTU21D;63800;51.972;5.682;2024-01-15T06:46:00;-15.73;118.99
75217;HTU21D;63800;51.972;5.682;2024-01-15T06:48:26;-15.84;118.99
75217;HTU21D;63800;51.972;5.682;2024-01-15T06:50:51;-15.72;118.99
75217;HTU21D;63800;51.972;5.682;2024-01-15T06:53:17;-15.77;118.99
75217;HTU21D;63800;51.972;5.682;2024-01-15T06:55:42;-15.79;118.99
75217;HTU21D;63800;51.972;5.682;2024-01-15T06:58:08;-15.76;118.99
75217;HTU21D;63800;51.972;5.682;2024-01-15T07:00:33;-15.77;118.99
75217;HTU21D;63800;51.972;5.682;2024-01-15T07:02:59;-15.74;118.99
75217;HTU21D;63800;51.972;5.682;2024-01-15T07:05:24;-15.72;118.99
75217;HTU21D;63800;51.972;5.682;2024-01-15T07:07:50;-15.77;118.99
75217;HTU21D;63800;51.972;5.682;2024-01-15T07:10:16;-15.76;118.99
75217;HTU21D;63800;51.972;5.682;2024-01-15T07:12:42;-15.77;118.99
75217;HTU21D;63800;51.972;5.682;2024-01-15T07:15:08;-15.79;118.99
75217;HTU21D;63800;51.972;5.682;2024-01-15T07:17:34;-15.74;118.99
75217;HTU21D;63800;51.972;5.682;2024-01-15T07:19:59;-15.80;118.99
75217;HTU21D;63800;51.972;5.682;2024-01-15T07:22:25;-15.82;118.99
75217;HTU21D;63800;51.972;5.682;2024-01-15T07:24:51;-15.87;118.99
75217;HTU21D;63800;51.972;5.682;2024-01-15T07:27:16;-15.83;118.99
75217;HTU21D;63800;51.972;5.682;2024-01-15T07:29:42;-15.83;118.99
75217;HTU21D;63800;51.972;5.682;2024-01-15T07:32:08;-15.84;118.99
75217;HTU21D;63800;51.972;5.682;2024-01-15T07:34:34;-15.84;118.99
75217;HTU21D;63800;51.972;5.682;2024-01-15T07:36:59;-15.82;118.99
75217;HTU21D;63800;51.972;5.682;2024-01-15T07:39:25;-15.82;118.99
75217;HTU21D;63800;51.972;5.682;2024-01-15T07:41:51;-15.87;118.99
75217;HTU21D;63800;51.972;5.682;2024-01-15T07:44:16;-15.77;118.99
75217;HTU21D;63800;51.972;5.682;2024-01-15T07:46:46;-15.74;118.99
75217;HTU21D;63800;51.972;5.682;2024-01-15T07:49:12;-15.75;118.99
75217;HTU21D;63800;51.972;5.682;2024-01-15T07:51:37;-15.83;118.99
75217;HTU21D;63800;51.972;5.682;2024-01-15T07:54:03;-15.84;118.99
75217;HTU21D;63800;51.972;5.682;2024-01-15T07:56:28;-15.89;118.99
75217;HTU21D;63800;51.972;5.682;2024-01-15T07:58:54;-15.88;118.99
75217;HTU21D;63800;51.972;5.682;2024-01-15T08:01:19;-15.90;118.99
75217;HTU21D;63800;51.972;5.682;2024-01-15T08:03:45;-15.89;118.99
75217;HTU21D;63800;51.972;5.682;2024-01-15T08:06:10;-15.89;118.99
75217;HTU21D;63800;51.972;5.682;2024-01-15T08:08:37;-15.82;118.99
75217;HTU21D;63800;51.972;5.682;2024-01-15T08:11:02;-15.82;118.99
75217;HTU21D;63800;51.972;5.682;2024-01-15T08:13:28;-15.89;118.99
75217;HTU21D;63800;51.972;5.682;2024-01-15T08:15:53;-15.83;118.99
75217;HTU21D;63800;51.972;5.682;2024-01-15T08:18:19;-15.81;118.99
75217;HTU21D;63800;51.972;5.682;2024-01-15T08:20:45;-15.79;118.99
75217;HTU21D;63800;51.972;5.682;2024-01-15T08:23:11;-15.87;118.99
75217;HTU21D;63800;51.972;5.682;2024-01-15T08:25:36;-15.87;118.99
75217;HTU21D;63800;51.972;5.682;2024-01-15T08:28:02;-15.91;118.99
75217;HTU21D;63800;51.972;5.682;2024-01-15T08:30:27;-15.89;118.99
75217;HTU21D;63800;51.972;5.682;2024-01-15T08:32:54;-15.89;118.99
75217;HTU21D;63800;51.972;5.682;2024-01-15T08:35:19;-15.83;118.99
75217;HTU21D;63800;51.972;5.682;2024-01-15T08:37:52;-15.84;118.99
75217;HTU21D;63800;51.972;5.682;2024-01-15T08:40:18;-15.81;118.99
75217;HTU21D;63800;51.972;5.682;2024-01-15T08:42:44;-15.75;118.99
75217;HTU21D;63800;51.972;5.682;2024-01-15T08:45:11;-15.78;118.99
75217;HTU21D;63800;51.972;5.682;2024-01-15T08:47:36;-15.75;118.99
75217;HTU21D;63800;51.972;5.682;2024-01-15T08:50:03;-15.77;118.99
75217;HTU21D;63800;51.972;5.682;2024-01-15T08:52:29;-15.77;118.99
75217;HTU21D;63800;51.972;5.682;2024-01-15T08:54:56;-15.72;118.99
75217;HTU21D;63800;51.972;5.682;2024-01-15T08:57:22;-15.72;118.99
75217;HTU21D;63800;51.972;5.682;2024-01-15T08:59:47;-15.70;118.99
75217;HTU21D;63800;51.972;5.682;2024-01-15T09:02:13;-15.74;118.99
75217;HTU21D;63800;51.972;5.682;2024-01-15T09:04:38;-15.68;118.99
75217;HTU21D;63800;51.972;5.682;2024-01-15T09:07:04;-15.66;118.99
75217;HTU21D;63800;51.972;5.682;2024-01-15T09:09:29;-15.70;118.99
75217;HTU21D;63800;51.972;5.682;2024-01-15T09:11:55;-15.70;118.99
75217;HTU21D;63800;51.972;5.682;2024-01-15T09:14:20;-15.72;118.99
75217;HTU21D;63800;51.972;5.682;2024-01-15T09:16:47;-15.73;118.99
75217;HTU21D;63800;51.972;5.682;2024-01-15T09:19:13;-15.67;118.99
75217;HTU21D;63800;51.972;5.682;2024-01-15T09:21:38;-15.59;118.99
75217;HTU21D;63800;51.972;5.682;2024-01-15T09:24:04;-15.70;118.99
75217;HTU21D;63800;51.972;5.682;2024-01-15T09:26:30;-15.68;118.99
75217;HTU21D;63800;51.972;5.682;2024-01-15T09:28:56;-15.69;118.99
75217;HTU21D;63800;51.972;5.682;2024-01-15T09:31:22;-15.65;118.99
75217;HTU21D;63800;51.972;5.682;2024-01-15T09:33:48;-15.59;118.99
75217;HTU21D;63800;51.972;5.682;2024-01-15T09:36:14;-15.56;118.99
75217;HTU21D;63800;51.972;5.682;2024-01-15T09:38:40;-15.59;118.99
75217;HTU21D;63800;51.972;5.682;2024-01-15T09:41:07;-15.62;118.99
75217;HTU21D;63800;51.972;5.682;2024-01-15T09:43:32;-15.69;118.99
75217;HTU21D;63800;51.972;5.682;2024-01-15T09:45:58;-15.75;118.99
75217;HTU21D;63800;51.972;5.682;2024-01-15T09:48:24;-15.69;118.99
75217;HTU21D;63800;51.972;5.682;2024-01-15T09:50:50;-15.65;118.99
75217;HTU21D;63800;51.972;5.682;2024-01-15T09:53:15;-15.72;118.99
75217;HTU21D;63800;51.972;5.682;2024-01-15T09:55:41;-15.68;118.99
75217;HTU21D;63800;51.972;5.682;2024-01-15T09:58:07;-15.61;118.99
75217;HTU21D;63800;51.972;5.682;2024-01-15T10:00:33;-15.49;118.99
75217;HTU21D;63800;51.972;5.682;2024-01-15T10:03:03;-15.40;118.99
75217;HTU21D;63800;51.972;5.682;2024-01-15T10:05:29;-15.33;118.99
75217;HTU21D;63800;51.972;5.682;2024-01-15T10:07:56;-15.26;118.99
75217;HTU21D;63800;51.972;5.682;2024-01-15T10:10:22;-15.38;118.99
75217;HTU21D;63800;51.972;5.682;2024-01-15T10:12:49;-15.44;118.99
75217;HTU21D;63800;51.972;5.682;2024-01-15T10:15:15;-15.53;118.99
75217;HTU21D;63800;51.972;5.682;2024-01-15T10:17:41;-15.48;118.99
75217;HTU21D;63800;51.972;5.682;2024-01-15T10:20:11;-15.61;118.99
75217;HTU21D;63800;51.972;5.682;2024-01-15T10:22:40;-15.63;118.99
75217;HTU21D;63800;51.972;5.682;2024-01-15T10:25:06;-15.68;118.99
75217;HTU21D;63800;51.972;5.682;2024-01-15T10:27:31;-15.73;118.99
75217;HTU21D;63800;51.972;5.682;2024-01-15T10:30:00;-15.67;118.99
75217;HTU21D;63800;51.972;5.682;2024-01-15T10:32:27;-15.69;118.99
75217;HTU21D;63800;51.972;5.682;2024-01-15T10:34:54;-15.65;118.99
75217;HTU21D;63800;51.972;5.682;2024-01-15T10:37:19;-15.40;118.99
75217;HTU21D;63800;51.972;5.682;2024-01-15T10:39:46;-15.25;118.99
75217;HTU21D;63800;51.972;5.682;2024-01-15T10:42:12;-15.33;118.99
75217;HTU21D;63800;51.972;5.682;2024-01-15T10:44:37;-15.17;118.99
75217;HTU21D;63800;51.972;5.682;2024-01-15T10:47:04;-14.93;118.99
75217;HTU21D;63800;51.972;5.682;2024-01-15T10:49:29;-14.70;118.99
75217;HTU21D;63800;51.972;5.682;2024-01-15T10:51:56;-14.95;118.99
75217;HTU21D;63800;51.972;5.682;2024-01-15T10:54:22;-15.01;118.99
75217;HTU21D;63800;51.972;5.682;2024-01-15T10:56:50;-15.00;118.99
75217;HTU21D;63800;51.972;5.682;2024-01-15T10:59:16;-15.18;118.99
75217;HTU21D;63800;51.972;5.682;2024-01-15T11:01:42;-15.26;118.99
75217;HTU21D;63800;51.972;5.682;2024-01-15T11:04:08;-15.33;118.99
75217;HTU21D;63800;51.972;5.682;2024-01-15T11:06:50;-15.31;118.99
75217;HTU21D;63800;51.972;5.682;2024-01-15T11:09:16;-15.25;118.99
75217;HTU21D;63800;51.972;5.682;2024-01-15T11:11:46;-15.08;118.99
75217;HTU21D;63800;51.972;5.682;2024-01-15T11:14:38;-15.21;118.99
75217;HTU21D;63800;51.972;5.682;2024-01-15T11:17:04;-15.20;118.99
75217;HTU21D;63800;51.972;5.682;2024-01-15T11:19:57;-15.32;118.99
75217;HTU21D;63800;51.972;5.682;2024-01-15T11:24:55;-15.11;118.99
75217;HTU21D;63800;51.972;5.682;2024-01-15T11:27:40;-15.04;118.99
75217;HTU21D;63800;51.972;5.682;2024-01-15T11:30:08;-14.96;118.99
75217;HTU21D;63800;51.972;5.682;2024-01-15T11:32:37;-15.05;118.99
75217;HTU21D;63800;51.972;5.682;2024-01-15T11:35:03;-15.09;118.99
75217;HTU21D;63800;51.972;5.682;2024-01-15T11:37:57;-15.10;118.99
75217;HTU21D;63800;51.972;5.682;2024-01-15T11:42:49;-14.98;118.99
75217;HTU21D;63800;51.972;5.682;2024-01-15T11:45:19;-14.88;118.99
75217;HTU21D;63800;51.972;5.682;2024-01-15T11:48:13;-14.82;118.99
75217;HTU21D;63800;51.972;5.682;2024-01-15T11:50:47;-14.82;118.99
75217;HTU21D;63800;51.972;5.682;2024-01-15T11:53:16;-14.92;118.99
75217;HTU21D;63800;51.972;5.682;2024-01-15T11:55:44;-14.89;118.99
75217;HTU21D;63800;51.972;5.682;2024-01-15T11:58:14;-13.72;118.99
75217;HTU21D;63800;51.972;5.682;2024-01-15T12:00:44;-12.82;118.99
75217;HTU21D;63800;51.972;5.682;2024-01-15T12:03:10;-12.60;118.99
75217;HTU21D;63800;51.972;5.682;2024-01-15T12:05:40;-12.77;118.99
75217;HTU21D;63800;51.972;5.682;2024-01-15T12:08:07;-12.55;118.99
75217;HTU21D;63800;51.972;5.682;2024-01-15T12:10:37;-12.54;118.99
75217;HTU21D;63800;51.972;5.682;2024-01-15T12:13:09;-13.00;118.99
75217;HTU21D;63800;51.972;5.682;2024-01-15T12:15:35;-13.10;118.99
75217;HTU21D;63800;51.972;5.682;2024-01-15T12:18:02;-13.04;118.99
75217;HTU21D;63800;51.972;5.682;2024-01-15T12:20:28;-12.57;118.99
75217;HTU21D;63800;51.972;5.682;2024-01-15T12:22:54;-12.74;118.99
75217;HTU21D;63800;51.972;5.682;2024-01-15T12:25:21;-13.19;118.99
75217;HTU21D;63800;51.972;5.682;2024-01-15T12:27:47;-13.58;118.99
75217;HTU21D;63800;51.972;5.682;2024-01-15T12:30:15;-13.76;118.99
75217;HTU21D;63800;51.972;5.682;2024-01-15T12:32:41;-13.80;118.99
75217;HTU21D;63800;51.972;5.682;2024-01-15T12:35:07;-13.95;118.99
75217;HTU21D;63800;51.972;5.682;2024-01-15T12:37:35;-14.12;118.99
75217;HTU21D;63800;51.972;5.682;2024-01-15T12:40:01;-13.87;118.99
75217;HTU21D;63800;51.972;5.682;2024-01-15T12:42:28;-13.36;118.99
75217;HTU21D;63800;51.972;5.682;2024-01-15T12:44:56;-11.96;118.99
75217;HTU21D;63800;51.972;5.682;2024-01-15T12:47:21;-11.64;118.99
75217;HTU21D;63800;51.972;5.682;2024-01-15T12:49:47;-12.54;118.99
75217;HTU21D;63800;51.972;5.682;2024-01-15T12:52:19;-13.17;118.99
75217;HTU21D;63800;51.972;5.682;2024-01-15T12:54:45;-13.61;118.99
75217;HTU21D;63800;51.972;5.682;2024-01-15T12:57:10;-13.65;118.99
75217;HTU21D;63800;51.972;5.682;2024-01-15T12:59:35;-13.80;118.99
75217;HTU21D;63800;51.972;5.682;2024-01-15T13:02:01;-13.80;118.99
75217;HTU21D;63800;51.972;5.682;2024-01-15T13:04:26;-13.81;118.99
75217;HTU21D;63800;51.972;5.682;2024-01-15T13:06:52;-13.87;118.99
75217;HTU21D;63800;51.972;5.682;2024-01-15T13:09:18;-14.12;118.99
75217;HTU21D;63800;51.972;5.682;2024-01-15T13:11:47;-14.22;118.99
75217;HTU21D;63800;51.972;5.682;2024-01-15T13:14:13;-14.44;118.99
75217;HTU21D;63800;51.972;5.682;2024-01-15T13:16:40;-14.45;118.99
75217;HTU21D;63800;51.972;5.682;2024-01-15T13:19:07;-14.42;118.99
75217;HTU21D;63800;51.972;5.682;2024-01-15T13:21:33;-14.36;118.99
75217;HTU21D;63800;51.972;5.682;2024-01-15T13:23:58;-14.32;118.99
75217;HTU21D;63800;51.972;5.682;2024-01-15T13:26:24;-14.28;118.99
75217;HTU21D;63800;51.972;5.682;2024-01-15T13:28:50;-14.26;118.99
75217;HTU21D;63800;51.972;5.682;2024-01-15T13:31:15;-14.23;118.99
75217;HTU21D;63800;51.972;5.682;2024-01-15T13:33:41;-14.32;118.99
75217;HTU21D;63800;51.972;5.682;2024-01-15T13:36:06;-14.47;118.99
75217;HTU21D;63800;51.972;5.682;2024-01-15T13:38:37;-14.58;118.99
75217;HTU21D;63800;51.972;5.682;2024-01-15T13:41:04;-14.58;118.99
75217;HTU21D;63800;51.972;5.682;2024-01-15T13:43:30;-14.60;118.99
75217;HTU21D;63800;51.972;5.682;2024-01-15T13:45:56;-14.49;118.99
75217;HTU21D;63800;51.972;5.682;2024-01-15T13:48:21;-14.40;118.99
75217;HTU21D;63800;51.972;5.682;2024-01-15T13:50:47;-14.02;118.99
75217;HTU21D;63800;51.972;5.682;2024-01-15T13:53:12;-13.63;118.99
75217;HTU21D;63800;51.972;5.682;2024-01-15T13:55:37;-13.41;118.99
75217;HTU21D;63800;51.972;5.682;2024-01-15T13:58:03;-13.46;118.99
75217;HTU21D;63800;51.972;5.682;2024-01-15T14:00:31;-13.56;118.99
75217;HTU21D;63800;51.972;5.682;2024-01-15T14:02:57;-13.81;118.99
75217;HTU21D;63800;51.972;5.682;2024-01-15T14:05:23;-13.85;118.99
75217;HTU21D;63800;51.972;5.682;2024-01-15T14:07:48;-13.95;118.99
75217;HTU21D;63800;51.972;5.682;2024-01-15T14:10:14;-13.96;118.99
75217;HTU21D;63800;51.972;5.682;2024-01-15T14:12:39;-14.00;118.99
75217;HTU21D;63800;51.972;5.682;2024-01-15T14:15:06;-14.35;118.99
75217;HTU21D;63800;51.972;5.682;2024-01-15T14:17:31;-14.33;118.99
75217;HTU21D;63800;51.972;5.682;2024-01-15T14:19:58;-14.23;118.99
75217;HTU21D;63800;51.972;5.682;2024-01-15T14:22:24;-14.26;118.99
75217;HTU21D;63800;51.972;5.682;2024-01-15T14:24:50;-14.52;118.99
75217;HTU21D;63800;51.972;5.682;2024-01-15T14:27:16;-14.46;118.99
75217;HTU21D;63800;51.972;5.682;2024-01-15T14:29:42;-14.58;118.99
75217;HTU21D;63800;51.972;5.682;2024-01-15T14:32:07;-14.62;118.99
75217;HTU21D;63800;51.972;5.682;2024-01-15T14:34:33;-14.60;118.99
75217;HTU21D;63800;51.972;5.682;2024-01-15T14:36:58;-14.48;118.99
75217;HTU21D;63800;51.972;5.682;2024-01-15T14:39:24;-14.39;118.99
75217;HTU21D;63800;51.972;5.682;2024-01-15T14:41:51;-14.37;118.99
75217;HTU21D;63800;51.972;5.682;2024-01-15T14:44:16;-14.36;118.99
75217;HTU21D;63800;51.972;5.682;2024-01-15T14:46:42;-14.51;118.99